createdAt,value
2019-02-21T00:00:39.475Z,17.64
2019-02-21T00:01:40.041Z,17.71
2019-02-21T00:02:40.610Z,17.67
2019-02-21T00:03:41.183Z,17.70
2019-02-21T00:04:41.747Z,17.60
2019-02-21T00:05:42.320Z,17.57
2019-02-21T00:06:42.888Z,17.57
2019-02-21T00:07:43.456Z,17.63
2019-02-21T00:08:44.037Z,17.57
2019-02-21T00:09:44.690Z,17.54
2019-02-21T00:10:45.259Z,17.57
2019-02-21T00:11:45.879Z,17.51
2019-02-21T00:12:46.448Z,17.46
2019-02-21T00:13:47.016Z,17.42
2019-02-21T00:14:47.585Z,17.44
2019-02-21T00:15:48.156Z,17.56
2019-02-21T00:16:48.767Z,17.46
2019-02-21T00:17:49.335Z,17.42
2019-02-21T00:18:49.907Z,17.48
2019-02-21T00:19:50.477Z,17.36
2019-02-21T00:20:51.080Z,17.41
2019-02-21T00:21:51.616Z,17.45
2019-02-21T00:22:52.187Z,17.46
2019-02-21T00:23:52.807Z,17.42
2019-02-21T00:24:53.374Z,17.44
2019-02-21T00:25:55.837Z,17.46
2019-02-21T00:26:55.506Z,17.33
2019-02-21T00:27:56.075Z,17.41
2019-02-21T00:28:56.650Z,17.41
2019-02-21T00:29:57.309Z,17.29
2019-02-21T00:30:57.928Z,17.27
2019-02-21T00:31:58.597Z,17.36
2019-02-21T00:32:59.270Z,17.46
2019-02-21T00:33:59.888Z,17.38
2019-02-21T00:35:00.407Z,17.31
2019-02-21T00:36:01.008Z,17.29
2019-02-21T00:37:01.587Z,17.27
2019-02-21T00:38:02.156Z,17.31
2019-02-21T00:39:02.725Z,17.23
2019-02-21T00:40:03.295Z,17.24
2019-02-21T00:41:03.868Z,17.27
2019-02-21T00:42:04.434Z,17.20
2019-02-21T00:43:05.003Z,17.27
2019-02-21T00:44:05.570Z,17.19
2019-02-21T00:45:06.185Z,17.12
2019-02-21T00:46:06.762Z,17.06
2019-02-21T00:47:07.363Z,17.04
2019-02-21T00:48:07.933Z,17.11
2019-02-21T00:49:08.554Z,17.05
2019-02-21T00:50:09.176Z,17.02
2019-02-21T00:51:09.745Z,17.02
2019-02-21T00:52:10.315Z,17.01
2019-02-21T00:53:10.884Z,17.02
2019-02-21T00:54:11.453Z,17.09
2019-02-21T00:55:12.030Z,17.05
2019-02-21T00:56:12.592Z,17.11
2019-02-21T00:57:13.161Z,17.09
2019-02-21T00:58:13.728Z,17.19
2019-02-21T00:59:14.299Z,17.11
2019-02-21T01:00:14.870Z,17.22
2019-02-21T01:01:15.440Z,17.16
2019-02-21T01:02:16.014Z,17.26
2019-02-21T01:03:16.629Z,17.22
2019-02-21T01:04:17.203Z,17.14
2019-02-21T01:05:17.967Z,17.23
2019-02-21T01:06:18.534Z,17.19
2019-02-21T01:07:19.152Z,17.05
2019-02-21T01:08:19.728Z,17.15
2019-02-21T01:09:20.291Z,17.06
2019-02-21T01:10:20.858Z,17.04
2019-02-21T01:11:21.482Z,17.15
2019-02-21T01:12:22.048Z,17.14
2019-02-21T01:13:22.660Z,17.20
2019-02-21T01:14:23.274Z,17.08
2019-02-21T01:15:23.842Z,17.19
2019-02-21T01:16:24.421Z,17.22
2019-02-21T01:17:24.979Z,17.23
2019-02-21T01:18:25.547Z,17.24
2019-02-21T01:19:26.118Z,17.19
2019-02-21T01:20:26.736Z,17.33
2019-02-21T01:21:27.355Z,17.24
2019-02-21T01:22:27.923Z,17.24
2019-02-21T01:23:28.492Z,17.23
2019-02-21T01:24:29.110Z,17.24
2019-02-21T01:25:29.678Z,17.31
2019-02-21T01:26:30.254Z,17.27
2019-02-21T01:27:30.862Z,17.33
2019-02-21T01:28:31.432Z,17.26
2019-02-21T01:29:32.011Z,17.23
2019-02-21T01:30:32.577Z,17.27
2019-02-21T01:31:33.148Z,17.26
2019-02-21T01:32:33.716Z,17.24
2019-02-21T01:33:34.398Z,17.23
2019-02-21T01:34:34.932Z,17.27
2019-02-21T01:35:35.592Z,17.23
2019-02-21T01:36:36.162Z,17.29
2019-02-21T01:37:36.732Z,17.23
2019-02-21T01:38:37.300Z,17.24
2019-02-21T01:39:37.922Z,17.23
2019-02-21T01:40:38.489Z,17.23
2019-02-21T01:41:39.073Z,17.19
2019-02-21T01:42:39.632Z,17.27
2019-02-21T01:43:40.243Z,17.24
2019-02-21T01:44:40.810Z,17.14
2019-02-21T01:45:41.378Z,17.20
2019-02-21T01:46:42.000Z,17.22
2019-02-21T01:47:42.521Z,17.19
2019-02-21T01:48:43.092Z,17.09
2019-02-21T01:49:43.657Z,17.12
2019-02-21T01:50:44.230Z,17.15
2019-02-21T01:51:44.794Z,17.16
2019-02-21T01:52:45.362Z,17.12
2019-02-21T01:53:45.934Z,17.11
2019-02-21T01:54:46.501Z,17.05
2019-02-21T01:55:47.068Z,17.12
2019-02-21T01:56:47.639Z,17.15
2019-02-21T01:57:48.407Z,17.22
2019-02-21T01:58:48.977Z,17.12
2019-02-21T01:59:49.596Z,17.14
2019-02-21T02:00:50.166Z,17.12
2019-02-21T02:01:50.735Z,17.04
2019-02-21T02:02:51.302Z,17.04
2019-02-21T02:03:51.915Z,17.16
2019-02-21T02:04:52.483Z,17.09
2019-02-21T02:05:53.094Z,17.04
2019-02-21T02:06:53.664Z,17.06
2019-02-21T02:07:54.232Z,17.15
2019-02-21T02:08:54.810Z,17.06
2019-02-21T02:09:55.371Z,17.12
2019-02-21T02:10:55.981Z,17.08
2019-02-21T02:11:56.599Z,17.15
2019-02-21T02:12:57.172Z,17.06
2019-02-21T02:13:57.740Z,17.06
2019-02-21T02:14:58.459Z,17.08
2019-02-21T02:15:59.026Z,17.11
2019-02-21T02:16:59.597Z,17.09
2019-02-21T02:18:00.215Z,17.08
2019-02-21T02:19:00.786Z,17.12
2019-02-21T02:20:01.358Z,17.22
2019-02-21T02:21:01.926Z,17.01
2019-02-21T02:22:02.493Z,17.05
2019-02-21T02:23:03.073Z,17.08
2019-02-21T02:24:03.637Z,17.22
2019-02-21T02:25:04.203Z,17.20
2019-02-21T02:26:04.774Z,17.04
2019-02-21T02:27:05.343Z,17.16
2019-02-21T02:28:05.913Z,17.04
2019-02-21T02:29:06.481Z,17.15
2019-02-21T02:30:07.164Z,17.09
2019-02-21T02:31:21.491Z,17.12
2019-02-21T02:32:09.770Z,17.06
2019-02-21T02:33:10.490Z,17.06
2019-02-21T02:34:11.103Z,17.05
2019-02-21T02:35:11.721Z,17.05
2019-02-21T02:36:12.290Z,17.02
2019-02-21T02:37:12.856Z,17.09
2019-02-21T02:38:13.424Z,17.05
2019-02-21T02:39:13.992Z,16.99
2019-02-21T02:40:14.564Z,16.99
2019-02-21T02:41:15.129Z,16.94
2019-02-21T02:42:15.698Z,16.94
2019-02-21T02:43:16.267Z,16.99
2019-02-21T02:44:16.835Z,17.02
2019-02-21T02:45:17.559Z,17.04
2019-02-21T02:46:18.133Z,17.01
2019-02-21T02:47:18.695Z,16.94
2019-02-21T02:48:19.262Z,16.93
2019-02-21T02:49:19.835Z,16.96
2019-02-21T02:50:20.404Z,16.93
2019-02-21T02:51:20.976Z,16.94
2019-02-21T02:52:21.542Z,16.93
2019-02-21T02:53:22.113Z,16.93
2019-02-21T02:54:22.738Z,16.96
2019-02-21T02:55:23.299Z,16.89
2019-02-21T02:56:23.868Z,16.89
2019-02-21T02:57:24.436Z,16.97
2019-02-21T02:58:25.012Z,16.97
2019-02-21T02:59:25.577Z,16.96
2019-02-21T03:00:26.217Z,16.94
2019-02-21T03:01:34.804Z,16.99
2019-02-21T03:02:28.346Z,16.87
2019-02-21T03:03:28.914Z,16.93
2019-02-21T03:04:29.692Z,16.99
2019-02-21T03:05:30.129Z,16.93
2019-02-21T03:06:30.696Z,16.97
2019-02-21T03:07:31.263Z,16.93
2019-02-21T03:08:31.985Z,16.93
2019-02-21T03:09:32.552Z,16.81
2019-02-21T03:10:46.883Z,16.90
2019-02-21T03:11:47.451Z,16.81
2019-02-21T03:12:48.020Z,16.84
2019-02-21T03:13:48.596Z,16.78
2019-02-21T03:14:49.157Z,16.76
2019-02-21T03:15:49.727Z,16.86
2019-02-21T03:16:50.313Z,16.75
2019-02-21T03:17:50.914Z,16.69
2019-02-21T03:18:51.524Z,16.72
2019-02-21T03:19:52.100Z,16.72
2019-02-21T03:20:52.661Z,16.71
2019-02-21T03:21:53.231Z,16.72
2019-02-21T03:22:53.799Z,16.72
2019-02-21T03:23:54.371Z,16.69
2019-02-21T03:24:54.936Z,16.76
2019-02-21T03:25:55.514Z,16.74
2019-02-21T03:26:56.169Z,16.72
2019-02-21T03:27:56.736Z,16.74
2019-02-21T03:28:57.312Z,16.69
2019-02-21T03:29:57.875Z,16.79
2019-02-21T03:30:58.444Z,16.81
2019-02-21T03:31:59.017Z,16.79
2019-02-21T03:32:59.582Z,16.69
2019-02-21T03:34:00.152Z,16.74
2019-02-21T03:35:00.746Z,16.69
2019-02-21T03:36:01.292Z,16.71
2019-02-21T03:37:01.856Z,16.61
2019-02-21T03:38:02.437Z,16.61
2019-02-21T03:39:02.995Z,16.60
2019-02-21T03:40:03.562Z,16.68
2019-02-21T03:41:04.175Z,16.74
2019-02-21T03:42:04.741Z,16.65
2019-02-21T03:43:05.310Z,16.61
2019-02-21T03:44:05.883Z,16.75
2019-02-21T03:45:06.446Z,16.74
2019-02-21T03:46:07.016Z,16.74
2019-02-21T03:47:07.585Z,16.75
2019-02-21T03:48:08.154Z,16.79
2019-02-21T03:49:08.722Z,16.76
2019-02-21T03:50:09.290Z,16.72
2019-02-21T03:51:09.861Z,16.74
2019-02-21T03:52:10.480Z,16.71
2019-02-21T03:53:11.096Z,16.71
2019-02-21T03:54:11.663Z,16.60
2019-02-21T03:55:12.229Z,16.60
2019-02-21T03:56:12.798Z,16.65
2019-02-21T03:57:13.369Z,16.58
2019-02-21T03:58:13.937Z,16.68
2019-02-21T03:59:14.505Z,16.60
2019-02-21T04:00:15.082Z,16.64
2019-02-21T04:01:15.737Z,16.61
2019-02-21T04:02:16.306Z,16.66
2019-02-21T04:03:16.877Z,16.68
2019-02-21T04:04:17.489Z,16.71
2019-02-21T04:05:18.056Z,16.61
2019-02-21T04:06:18.630Z,16.57
2019-02-21T04:07:21.642Z,16.57
2019-02-21T04:08:20.758Z,16.58
2019-02-21T04:09:21.331Z,16.58
2019-02-21T04:10:21.894Z,16.61
2019-02-21T04:11:22.465Z,16.57
2019-02-21T04:12:23.083Z,16.54
2019-02-21T04:13:23.653Z,16.50
2019-02-21T04:14:24.220Z,16.42
2019-02-21T04:15:24.791Z,16.49
2019-02-21T04:16:25.358Z,16.47
2019-02-21T04:17:25.927Z,16.50
2019-02-21T04:18:26.492Z,16.51
2019-02-21T04:19:27.062Z,16.57
2019-02-21T04:20:27.635Z,16.58
2019-02-21T04:21:28.198Z,16.56
2019-02-21T04:22:28.816Z,16.53
2019-02-21T04:23:29.383Z,16.46
2019-02-21T04:24:29.969Z,16.58
2019-02-21T04:25:30.617Z,16.56
2019-02-21T04:26:31.182Z,16.51
2019-02-21T04:27:31.749Z,16.56
2019-02-21T04:28:32.320Z,16.56
2019-02-21T04:29:32.894Z,16.51
2019-02-21T04:30:33.456Z,16.64
2019-02-21T04:31:34.027Z,16.53
2019-02-21T04:32:34.595Z,16.56
2019-02-21T04:33:35.181Z,16.49
2019-02-21T04:34:35.777Z,16.60
2019-02-21T04:35:36.346Z,16.58
2019-02-21T04:36:36.965Z,16.54
2019-02-21T04:37:37.546Z,16.58
2019-02-21T04:38:38.102Z,16.51
2019-02-21T04:39:38.669Z,16.54
2019-02-21T04:40:39.243Z,16.56
2019-02-21T04:41:39.804Z,16.60
2019-02-21T04:42:40.423Z,16.54
2019-02-21T04:43:41.043Z,16.58
2019-02-21T04:44:41.640Z,16.47
2019-02-21T04:45:42.212Z,16.54
2019-02-21T04:46:42.780Z,16.49
2019-02-21T04:47:43.346Z,16.51
2019-02-21T04:48:43.917Z,16.49
2019-02-21T04:49:44.484Z,16.42
2019-02-21T04:50:45.050Z,16.51
2019-02-21T04:51:45.619Z,16.46
2019-02-21T04:52:46.186Z,16.47
2019-02-21T04:53:46.756Z,16.43
2019-02-21T04:54:47.323Z,16.47
2019-02-21T04:55:47.895Z,16.42
2019-02-21T04:56:48.459Z,16.42
2019-02-21T04:57:49.078Z,16.43
2019-02-21T04:58:49.647Z,16.42
2019-02-21T04:59:50.214Z,16.43
2019-02-21T05:00:50.780Z,16.43
2019-02-21T05:01:51.398Z,16.39
2019-02-21T05:02:52.116Z,16.36
2019-02-21T05:03:52.686Z,16.36
2019-02-21T05:04:53.253Z,16.43
2019-02-21T05:05:53.823Z,16.39
2019-02-21T05:06:54.395Z,16.38
2019-02-21T05:07:54.959Z,16.42
2019-02-21T05:08:55.538Z,16.31
2019-02-21T05:09:58.338Z,16.36
2019-02-21T05:10:57.692Z,16.35
2019-02-21T05:11:58.263Z,16.33
2019-02-21T05:12:58.836Z,16.33
2019-02-21T05:13:59.407Z,16.32
2019-02-21T05:14:59.971Z,16.31
2019-02-21T05:16:00.538Z,16.33
2019-02-21T05:17:01.117Z,16.36
2019-02-21T05:18:01.725Z,16.35
2019-02-21T05:19:02.272Z,16.32
2019-02-21T05:20:02.841Z,16.26
2019-02-21T05:21:03.410Z,16.31
2019-02-21T05:22:03.978Z,16.28
2019-02-21T05:23:04.601Z,16.20
2019-02-21T05:24:05.167Z,16.28
2019-02-21T05:25:05.853Z,16.17
2019-02-21T05:26:06.402Z,16.23
2019-02-21T05:27:07.006Z,16.28
2019-02-21T05:28:07.575Z,16.28
2019-02-21T05:29:08.195Z,16.23
2019-02-21T05:30:08.762Z,16.26
2019-02-21T05:31:09.330Z,16.16
2019-02-21T05:32:09.900Z,16.33
2019-02-21T05:33:10.580Z,16.26
2019-02-21T05:34:11.120Z,16.26
2019-02-21T05:35:11.681Z,16.24
2019-02-21T05:36:12.248Z,16.24
2019-02-21T05:37:12.816Z,16.17
2019-02-21T05:38:13.404Z,16.21
2019-02-21T05:39:14.011Z,16.32
2019-02-21T05:40:14.635Z,16.15
2019-02-21T05:41:15.202Z,16.17
2019-02-21T05:42:15.781Z,16.26
2019-02-21T05:43:16.339Z,16.20
2019-02-21T05:44:16.921Z,16.17
2019-02-21T05:45:17.518Z,16.20
2019-02-21T05:46:18.089Z,16.15
2019-02-21T05:47:18.666Z,16.16
2019-02-21T05:48:19.246Z,16.15
2019-02-21T05:49:19.897Z,16.08
2019-02-21T05:50:20.490Z,16.08
2019-02-21T05:51:21.066Z,16.04
2019-02-21T05:52:21.642Z,16.04
2019-02-21T05:53:22.215Z,16.10
2019-02-21T05:56:25.921Z,15.97
2019-02-21T05:57:26.544Z,15.92
2019-02-21T05:58:27.124Z,15.97
2019-02-21T05:59:27.689Z,15.88
2019-02-21T06:00:42.070Z,15.95
2019-02-21T06:01:56.389Z,15.94
2019-02-21T06:02:56.968Z,15.91
2019-02-21T06:03:57.586Z,15.90
2019-02-21T06:04:58.162Z,15.88
2019-02-21T06:05:58.874Z,15.84
2019-02-21T06:06:59.459Z,15.86
2019-02-21T06:10:36.846Z,15.83
2019-02-21T06:12:52.836Z,15.83
2019-02-21T06:15:56.643Z,15.90
2019-02-21T06:16:57.277Z,15.88
2019-02-21T06:17:58.006Z,15.91
2019-02-21T06:18:58.577Z,15.86
2019-02-21T06:19:59.152Z,15.84
2019-02-21T06:20:59.726Z,15.90
2019-02-21T06:22:10.082Z,15.88
2019-02-21T06:23:01.868Z,15.80
2019-02-21T06:24:02.496Z,15.80
2019-02-21T06:25:03.111Z,15.88
2019-02-21T06:26:03.717Z,15.77
2019-02-21T06:27:04.281Z,15.84
2019-02-21T06:29:40.190Z,15.88
2019-02-21T06:31:50.685Z,15.83
2019-02-21T06:34:06.677Z,15.82
2019-02-21T06:39:13.546Z,15.75
2019-02-21T06:40:14.110Z,15.76
2019-02-21T06:41:14.725Z,15.76
2019-02-21T06:42:15.300Z,15.70
2019-02-21T06:43:15.879Z,15.72
2019-02-21T06:44:16.451Z,15.70
2019-02-21T06:45:18.193Z,15.70
2019-02-21T06:46:17.683Z,15.76
2019-02-21T06:47:18.258Z,15.68
2019-02-21T06:48:18.827Z,15.64
2019-02-21T06:49:19.401Z,15.65
2019-02-21T06:50:26.892Z,15.67
2019-02-21T06:51:21.593Z,15.59
2019-02-21T06:52:22.167Z,15.57
2019-02-21T06:53:22.821Z,15.62
2019-02-21T06:54:23.358Z,15.59
2019-02-21T06:55:23.932Z,15.61
2019-02-21T06:56:24.506Z,15.62
2019-02-21T06:57:25.082Z,15.65
2019-02-21T06:58:25.655Z,15.62
2019-02-21T06:59:26.237Z,15.61
2019-02-21T07:00:26.806Z,15.58
2019-02-21T07:01:29.549Z,15.62
2019-02-21T07:02:28.946Z,15.61
2019-02-21T07:03:29.521Z,15.61
2019-02-21T07:04:30.093Z,15.58
2019-02-21T07:05:30.667Z,15.59
2019-02-21T07:06:32.416Z,15.61
2019-02-21T07:07:32.807Z,15.55
2019-02-21T07:08:33.382Z,15.57
2019-02-21T07:09:33.954Z,15.61
2019-02-21T07:10:34.684Z,15.61
2019-02-21T07:11:35.305Z,15.57
2019-02-21T07:12:36.028Z,15.59
2019-02-21T07:13:36.603Z,15.49
2019-02-21T07:14:37.177Z,15.58
2019-02-21T07:15:37.743Z,15.57
2019-02-21T07:16:38.315Z,15.55
2019-02-21T07:17:48.473Z,15.61
2019-02-21T07:18:40.957Z,15.59
2019-02-21T07:19:41.569Z,15.62
2019-02-21T07:20:42.142Z,15.64
2019-02-21T07:21:42.745Z,15.62
2019-02-21T07:22:43.291Z,15.67
2019-02-21T07:23:43.958Z,15.72
2019-02-21T07:24:44.480Z,15.65
2019-02-21T07:25:45.059Z,15.70
2019-02-21T07:26:45.628Z,15.67
2019-02-21T07:27:46.203Z,15.58
2019-02-21T07:28:46.776Z,15.67
2019-02-21T07:29:47.400Z,15.67
2019-02-21T07:30:48.039Z,15.72
2019-02-21T07:31:49.378Z,15.76
2019-02-21T07:32:50.140Z,15.68
2019-02-21T07:33:50.722Z,15.58
2019-02-21T07:34:51.288Z,15.59
2019-02-21T07:35:51.866Z,15.65
2019-02-21T07:36:52.444Z,15.65
2019-02-21T07:37:53.009Z,15.65
2019-02-21T07:39:08.484Z,15.64
2019-02-21T07:39:55.149Z,15.61
2019-02-21T07:40:55.825Z,15.62
2019-02-21T07:41:56.405Z,15.55
2019-02-21T07:42:58.683Z,15.62
2019-02-21T07:43:58.541Z,15.59
2019-02-21T07:44:59.807Z,15.57
2019-02-21T07:46:00.386Z,15.58
2019-02-21T07:47:00.957Z,15.58
2019-02-21T07:48:01.529Z,15.62
2019-02-21T07:49:02.102Z,15.57
2019-02-21T07:50:02.684Z,15.54
2019-02-21T07:51:03.248Z,15.43
2019-02-21T07:52:05.569Z,15.52
2019-02-21T07:53:05.385Z,15.58
2019-02-21T07:54:05.982Z,15.51
2019-02-21T07:55:06.534Z,15.52
2019-02-21T07:56:07.106Z,15.51
2019-02-21T07:57:08.636Z,15.52
2019-02-21T07:58:09.290Z,15.51
2019-02-21T07:59:12.043Z,15.49
2019-02-21T08:00:11.428Z,15.52
2019-02-21T08:01:12.004Z,15.52
2019-02-21T08:02:12.584Z,15.49
2019-02-21T08:03:13.154Z,15.47
2019-02-21T08:04:13.768Z,15.43
2019-02-21T08:05:14.399Z,15.49
2019-02-21T08:06:15.016Z,15.37
2019-02-21T08:07:15.588Z,15.43
2019-02-21T08:08:16.173Z,15.52
2019-02-21T08:09:18.890Z,15.44
2019-02-21T08:10:21.038Z,15.44
2019-02-21T08:11:19.881Z,15.42
2019-02-21T08:12:23.101Z,15.51
2019-02-21T08:13:22.057Z,15.54
2019-02-21T08:14:22.672Z,15.44
2019-02-21T08:15:23.257Z,15.57
2019-02-21T08:16:23.855Z,15.61
2019-02-21T08:17:24.429Z,15.58
2019-02-21T08:18:25.007Z,15.59
2019-02-21T08:19:25.576Z,15.70
2019-02-21T08:20:33.693Z,15.73
2019-02-21T08:21:27.725Z,15.79
2019-02-21T08:22:28.289Z,15.73
2019-02-21T08:23:28.919Z,15.77
2019-02-21T08:24:29.488Z,15.72
2019-02-21T08:25:30.066Z,15.73
2019-02-21T08:26:30.670Z,15.83
2019-02-21T08:27:31.224Z,15.88
2019-02-21T08:28:31.787Z,16.01
2019-02-21T08:29:32.361Z,16.01
2019-02-21T08:30:33.168Z,15.92
2019-02-21T08:31:33.694Z,15.84
2019-02-21T08:32:34.318Z,15.91
2019-02-21T08:33:34.890Z,15.82
2019-02-21T08:34:35.464Z,15.88
2019-02-21T08:35:36.039Z,15.82
2019-02-21T08:36:36.615Z,15.88
2019-02-21T08:37:37.190Z,15.83
2019-02-21T08:38:37.767Z,15.90
2019-02-21T08:39:38.343Z,15.80
2019-02-21T08:40:38.914Z,15.82
2019-02-21T08:41:39.538Z,15.82
2019-02-21T08:42:40.113Z,15.83
2019-02-21T08:43:40.688Z,15.90
2019-02-21T08:44:41.263Z,15.88
2019-02-21T08:45:41.837Z,15.80
2019-02-21T08:46:42.413Z,15.84
2019-02-21T08:47:42.986Z,15.84
2019-02-21T08:48:43.565Z,15.86
2019-02-21T08:49:44.186Z,15.83
2019-02-21T08:50:44.812Z,15.86
2019-02-21T08:51:45.439Z,15.84
2019-02-21T08:52:46.012Z,15.79
2019-02-21T08:53:46.589Z,15.83
2019-02-21T08:54:47.162Z,15.86
2019-02-21T08:55:47.735Z,15.80
2019-02-21T08:56:48.307Z,15.79
2019-02-21T08:57:48.882Z,15.86
2019-02-21T08:58:49.456Z,15.83
2019-02-21T08:59:50.032Z,15.88
2019-02-21T09:00:50.607Z,15.76
2019-02-21T09:01:51.183Z,15.76
2019-02-21T09:02:51.757Z,15.86
2019-02-21T09:03:52.330Z,15.80
2019-02-21T09:04:52.904Z,15.80
2019-02-21T09:05:53.477Z,15.84
2019-02-21T09:06:54.051Z,15.82
2019-02-21T09:07:54.672Z,15.77
2019-02-21T09:08:55.246Z,15.76
2019-02-21T09:09:55.837Z,15.79
2019-02-21T09:10:56.397Z,15.84
2019-02-21T09:11:56.974Z,15.83
2019-02-21T09:12:57.551Z,15.75
2019-02-21T09:13:58.118Z,15.91
2019-02-21T09:14:58.693Z,15.83
2019-02-21T09:15:59.284Z,15.86
2019-02-21T09:16:59.847Z,15.95
2019-02-21T09:18:00.426Z,15.97
2019-02-21T09:19:01.001Z,16.04
2019-02-21T09:20:01.683Z,16.05
2019-02-21T09:21:02.226Z,16.21
2019-02-21T09:22:02.802Z,16.21
2019-02-21T09:23:03.378Z,16.20
2019-02-21T09:24:04.003Z,16.23
2019-02-21T09:25:04.581Z,16.33
2019-02-21T09:26:05.164Z,16.31
2019-02-21T09:27:05.736Z,16.43
2019-02-21T09:28:06.321Z,16.43
2019-02-21T09:29:06.927Z,16.49
2019-02-21T09:30:07.553Z,16.43
2019-02-21T09:31:08.129Z,16.57
2019-02-21T09:32:08.705Z,16.42
2019-02-21T09:33:16.955Z,16.51
2019-02-21T09:34:20.633Z,16.61
2019-02-21T09:35:12.423Z,16.58
2019-02-21T09:36:13.004Z,16.58
2019-02-21T09:37:13.580Z,16.65
2019-02-21T09:38:14.158Z,16.60
2019-02-21T09:39:16.035Z,16.64
2019-02-21T09:40:15.403Z,16.60
2019-02-21T09:41:16.093Z,16.64
2019-02-21T09:42:16.626Z,16.64
2019-02-21T09:43:17.204Z,16.64
2019-02-21T09:44:18.283Z,16.75
2019-02-21T09:45:18.859Z,16.69
2019-02-21T09:46:19.437Z,16.72
2019-02-21T09:47:20.019Z,16.76
2019-02-21T09:48:20.597Z,16.79
2019-02-21T09:49:21.177Z,16.75
2019-02-21T09:50:21.756Z,16.78
2019-02-21T09:51:22.386Z,16.84
2019-02-21T09:52:22.962Z,16.89
2019-02-21T09:53:23.543Z,16.83
2019-02-21T09:54:24.218Z,16.90
2019-02-21T09:55:24.792Z,16.94
2019-02-21T09:56:30.255Z,16.96
2019-02-21T09:57:26.942Z,16.93
2019-02-21T09:58:27.524Z,16.89
2019-02-21T09:59:28.832Z,16.90
2019-02-21T10:00:28.726Z,16.91
2019-02-21T10:01:29.347Z,16.87
2019-02-21T10:02:29.925Z,16.99
2019-02-21T10:03:30.507Z,16.99
2019-02-21T10:04:32.475Z,17.05
2019-02-21T10:05:32.704Z,17.09
2019-02-21T10:06:33.284Z,17.06
2019-02-21T10:07:33.862Z,17.16
2019-02-21T10:08:34.440Z,17.16
2019-02-21T10:09:35.017Z,17.20
2019-02-21T10:10:35.744Z,17.09
2019-02-21T10:11:36.324Z,17.24
2019-02-21T10:12:37.052Z,17.24
2019-02-21T10:13:37.629Z,17.29
2019-02-21T10:14:38.265Z,17.23
2019-02-21T10:15:38.836Z,17.24
2019-02-21T10:16:39.419Z,17.24
2019-02-21T10:17:39.994Z,17.39
2019-02-21T10:18:40.577Z,17.41
2019-02-21T10:19:41.156Z,17.29
2019-02-21T10:20:41.736Z,17.29
2019-02-21T10:21:42.367Z,17.41
2019-02-21T10:22:42.947Z,17.42
2019-02-21T10:23:43.526Z,17.46
2019-02-21T10:24:44.106Z,17.48
2019-02-21T10:25:44.687Z,17.44
2019-02-21T10:26:45.319Z,17.45
2019-02-21T10:27:45.902Z,17.52
2019-02-21T10:28:46.530Z,17.56
2019-02-21T10:29:47.110Z,17.65
2019-02-21T10:30:47.691Z,17.70
2019-02-21T10:31:48.273Z,17.72
2019-02-21T10:32:48.852Z,17.76
2019-02-21T10:33:49.435Z,17.72
2019-02-21T10:34:50.016Z,17.80
2019-02-21T10:35:50.595Z,17.83
2019-02-21T10:36:51.173Z,17.90
2019-02-21T10:37:51.755Z,18.04
2019-02-21T10:38:52.335Z,17.98
2019-02-21T10:39:52.965Z,17.98
2019-02-21T10:40:53.546Z,18.05
2019-02-21T10:41:54.127Z,18.10
2019-02-21T10:42:54.707Z,18.11
2019-02-21T10:43:55.290Z,18.08
2019-02-21T10:44:55.919Z,18.15
2019-02-21T10:45:56.501Z,18.20
2019-02-21T10:46:57.082Z,18.13
2019-02-21T10:47:57.660Z,18.22
2019-02-21T10:48:58.258Z,18.28
2019-02-21T10:49:58.837Z,18.29
2019-02-21T10:50:59.420Z,18.26
2019-02-21T10:52:00.001Z,18.23
2019-02-21T10:53:00.582Z,18.28
2019-02-21T10:54:01.165Z,18.33
2019-02-21T10:55:01.747Z,18.37
2019-02-21T10:56:02.329Z,18.34
2019-02-21T10:57:02.911Z,18.34
2019-02-21T10:58:03.494Z,18.29
2019-02-21T10:59:04.078Z,18.38
2019-02-21T11:00:04.667Z,18.40
2019-02-21T11:01:05.238Z,18.41
2019-02-21T11:02:05.869Z,18.38
2019-02-21T11:03:06.452Z,18.43
2019-02-21T11:04:07.035Z,18.45
2019-02-21T11:05:07.659Z,18.47
2019-02-21T11:06:08.240Z,18.52
2019-02-21T11:07:08.873Z,18.55
2019-02-21T11:08:09.453Z,18.53
2019-02-21T11:09:10.036Z,18.66
2019-02-21T11:10:10.616Z,18.63
2019-02-21T11:11:11.197Z,18.65
2019-02-21T11:12:11.779Z,18.65
2019-02-21T11:13:12.362Z,18.59
2019-02-21T11:14:12.941Z,18.66
2019-02-21T11:15:13.521Z,18.60
2019-02-21T11:16:14.105Z,18.59
2019-02-21T11:17:14.689Z,18.73
2019-02-21T11:18:15.319Z,18.62
2019-02-21T11:19:15.905Z,18.62
2019-02-21T11:20:16.486Z,18.74
2019-02-21T11:21:17.069Z,18.66
2019-02-21T11:22:17.651Z,18.74
2019-02-21T11:23:18.233Z,18.70
2019-02-21T11:24:18.818Z,18.63
2019-02-21T11:25:19.444Z,18.74
2019-02-21T11:26:20.025Z,18.75
2019-02-21T11:27:20.607Z,18.71
2019-02-21T11:28:21.190Z,18.70
2019-02-21T11:29:21.772Z,18.62
2019-02-21T11:30:22.354Z,18.66
2019-02-21T11:31:22.950Z,18.59
2019-02-21T11:32:23.526Z,18.66
2019-02-21T11:33:24.102Z,18.60
2019-02-21T11:34:24.686Z,18.58
2019-02-21T11:35:25.318Z,18.63
2019-02-21T11:36:25.900Z,18.50
2019-02-21T11:37:26.482Z,18.59
2019-02-21T11:38:27.067Z,18.53
2019-02-21T11:39:27.646Z,18.52
2019-02-21T11:40:28.228Z,18.50
2019-02-21T11:41:28.810Z,18.50
2019-02-21T11:42:29.451Z,18.53
2019-02-21T11:43:30.023Z,18.49
2019-02-21T11:44:30.605Z,18.55
2019-02-21T11:45:31.185Z,18.52
2019-02-21T11:46:31.769Z,18.45
2019-02-21T11:47:32.400Z,18.44
2019-02-21T11:48:32.981Z,18.43
2019-02-21T11:49:33.564Z,18.43
2019-02-21T11:50:34.148Z,18.40
2019-02-21T11:51:34.819Z,18.44
2019-02-21T11:52:35.443Z,18.43
2019-02-21T11:53:38.043Z,18.43
2019-02-21T11:54:37.601Z,18.43
2019-02-21T11:55:38.211Z,18.41
2019-02-21T11:56:38.769Z,18.44
2019-02-21T11:57:39.399Z,18.43
2019-02-21T11:58:39.980Z,18.41
2019-02-21T11:59:40.614Z,18.40
2019-02-21T12:00:41.347Z,18.35
2019-02-21T12:01:41.971Z,18.43
2019-02-21T12:02:42.556Z,18.45
2019-02-21T12:03:43.133Z,18.47
2019-02-21T12:04:43.715Z,18.47
2019-02-21T12:05:44.303Z,18.49
2019-02-21T12:06:44.931Z,18.49
2019-02-21T12:07:45.554Z,18.53
2019-02-21T12:08:46.136Z,18.55
2019-02-21T12:09:46.717Z,18.55
2019-02-21T12:10:47.297Z,18.52
2019-02-21T12:11:47.882Z,18.53
2019-02-21T12:12:48.459Z,18.47
2019-02-21T12:13:49.039Z,18.53
2019-02-21T12:14:49.620Z,18.56
2019-02-21T12:15:50.252Z,18.60
2019-02-21T12:16:50.833Z,18.70
2019-02-21T12:17:51.415Z,18.68
2019-02-21T12:18:51.995Z,18.62
2019-02-21T12:19:52.576Z,18.65
2019-02-21T12:20:53.156Z,18.77
2019-02-21T12:21:59.123Z,18.77
2019-02-21T12:22:55.310Z,18.78
2019-02-21T12:23:55.945Z,18.86
2019-02-21T12:24:56.523Z,18.90
2019-02-21T12:25:57.103Z,18.93
2019-02-21T12:26:57.688Z,18.96
2019-02-21T12:27:58.266Z,18.99
2019-02-21T12:28:58.846Z,19.08
2019-02-21T12:29:59.426Z,19.15
2019-02-21T12:31:00.115Z,19.15
2019-02-21T12:32:00.891Z,19.15
2019-02-21T12:33:01.504Z,19.16
2019-02-21T12:34:02.055Z,19.29
2019-02-21T12:35:02.639Z,19.24
2019-02-21T12:36:03.325Z,19.22
2019-02-21T12:37:03.916Z,19.27
2019-02-21T12:38:04.486Z,19.26
2019-02-21T12:39:05.069Z,19.33
2019-02-21T12:40:05.651Z,19.33
2019-02-21T12:41:06.234Z,19.36
2019-02-21T12:42:06.818Z,19.36
2019-02-21T12:43:07.403Z,19.39
2019-02-21T12:44:07.993Z,19.45
2019-02-21T12:45:08.609Z,19.41
2019-02-21T12:46:09.240Z,19.39
2019-02-21T12:47:09.823Z,19.44
2019-02-21T12:48:10.410Z,19.44
2019-02-21T12:49:10.988Z,19.48
2019-02-21T12:50:11.568Z,19.45
2019-02-21T12:51:12.151Z,19.55
2019-02-21T12:52:12.783Z,19.69
2019-02-21T12:53:13.363Z,19.66
2019-02-21T12:54:13.949Z,19.66
2019-02-21T12:55:26.397Z,19.64
2019-02-21T12:56:15.198Z,19.66
2019-02-21T12:57:15.778Z,19.64
2019-02-21T12:58:16.360Z,19.71
2019-02-21T12:59:16.944Z,19.69
2019-02-21T13:00:17.526Z,19.59
2019-02-21T13:01:18.109Z,19.66
2019-02-21T13:02:18.691Z,19.67
2019-02-21T13:03:19.275Z,19.67
2019-02-21T13:04:19.906Z,19.66
2019-02-21T13:05:20.487Z,19.70
2019-02-21T13:06:21.073Z,19.70
2019-02-21T13:07:21.651Z,19.74
2019-02-21T13:08:22.236Z,19.76
2019-02-21T13:09:22.819Z,19.79
2019-02-21T13:10:23.442Z,19.85
2019-02-21T13:11:24.074Z,19.85
2019-02-21T13:12:24.656Z,19.91
2019-02-21T13:13:25.237Z,19.95
2019-02-21T13:14:25.819Z,19.91
2019-02-21T13:15:26.404Z,19.92
2019-02-21T13:16:26.986Z,19.89
2019-02-21T13:17:27.569Z,19.91